In Rescue
 
Open Full Screen Window  High Contrast Mode
Wind Gusting 00 knots
08
March 04, 2021 3:27 AM EST
Weather Information
Wind Direction
  010 °
Wind Speed
  08 kt (9 mph)
Wind Gust
  00 kt (0 mph)
Altimeter
30.21 in
Visibility
10 SM
Temperature
-02° C
28° F
Dewpoint
-07° C
19° F
Humidity
69%
1hr Rain Fall
00.00 in.
24hr Rain Fall
00.00 in.
Sky Condition
Overcast @ 2,300 ft
MVFR

METAR KLDM 040827Z AUTO 01008KT 10SM OVC023 M02/M07 A3021 RMK AO2 T10211066

FAA Disclaimer: The data displayed is for advisory purposes only and is not to be used for flight planning or operations.